Maassluis, Netherlands
Current Conditions -  °F | °C
As of 9:25 AM on Saturday 25 Oct 2014 (Local Time) from EHRD Reporting Station
Haze Haze  
Wind Chill: 54°   Ceiling: 1700
Heat Index: 54°   Visibility: 1.4mi
Dew Point: 54°   Wind: 5mph
Humidity: 100%   Direction: 180°S
Pressure: 30.03"   Gusts: NA
Location:  51.92°N, 4.25°E
Report Text: EHRD 250725Z AUTO 18004KT 2300 BR OVC017 12/12 Q1017 BECMG5000
Loading
Personal Weather Stations






























Interactive Weather Map
Tropical Storm Tracking
New forecast layout! Learn more

10-Day Weather Forecast

Advertisements
Track Severe Weather on mobile